Time,TemperatureF,DewpointF,PressureIn,WindDirection,WindDirectionDegrees,WindSpeedMPH,WindSpeedGustMPH,Humidity,HourlyPrecipIn,Conditions,Clouds,dailyrainin,SoftwareType,DateUTC
2013-03-04 00:00:00,-9.0,-18.5,30.04,West,276,0.0,0.0,62,0.00,,,0.00,Weather View 32 v70,2013-03-04 09:00:00,
2013-03-04 00:05:00,-9.3,-18.8,30.04,West,276,0.0,0.0,62,0.00,,,0.00,Weather View 32 v70,2013-03-04 09:05:00,
2013-03-04 00:10:00,-9.5,-19.0,30.04,West,276,0.0,0.0,62,0.00,,,0.00,Weather View 32 v70,2013-03-04 09:10:00,
2013-03-04 00:15:00,-9.5,-18.6,30.04,West,276,0.0,0.0,63,0.00,,,0.00,Weather View 32 v70,2013-03-04 09:15:00,
2013-03-04 00:20:00,-9.3,-18.5,30.04,West,276,0.0,0.0,63,0.00,,,0.00,Weather View 32 v70,2013-03-04 09:20:00,
2013-03-04 00:25:00,-9.4,-18.5,30.04,West,276,0.0,0.0,63,0.00,,,0.00,Weather View 32 v70,2013-03-04 09:25:00,
2013-03-04 00:30:00,-9.7,-19.1,30.04,West,276,0.0,0.0,62,0.00,,,0.00,Weather View 32 v70,2013-03-04 09:30:00,
2013-03-04 00:35:00,-10.0,-19.4,30.04,West,276,0.0,0.0,62,0.00,,,0.00,Weather View 32 v70,2013-03-04 09:35:00,
2013-03-04 00:40:00,-10.1,-19.5,30.04,West,276,0.0,0.0,62,0.00,,,0.00,Weather View 32 v70,2013-03-04 09:40:00,
2013-03-04 00:45:00,-10.2,-19.6,30.04,West,276,0.0,0.0,62,0.00,,,0.00,Weather View 32 v70,2013-03-04 09:45:00,
2013-03-04 00:50:00,-10.4,-20.1,30.04,West,276,0.0,1.0,61,0.00,,,0.00,Weather View 32 v70,2013-03-04 09:50:00,
2013-03-04 00:55:00,-10.6,-20.3,30.04,West,276,0.0,1.0,61,0.00,,,0.00,Weather View 32 v70,2013-03-04 09:55:00,
2013-03-04 01:00:00,-10.8,-20.5,30.04,West,276,0.0,1.0,61,0.00,,,0.00,Weather View 32 v70,2013-03-04 10:00:00,
2013-03-04 01:05:00,-11.0,-21.0,30.04,West,276,0.0,1.0,60,0.00,,,0.00,Weather View 32 v70,2013-03-04 10:05:00,
2013-03-04 01:10:00,-11.2,-20.9,30.04,West,276,0.0,1.0,61,0.00,,,0.00,Weather View 32 v70,2013-03-04 10:10:00,
2013-03-04 01:15:00,-11.4,-21.4,30.04,West,276,0.0,1.0,60,0.00,,,0.00,Weather View 32 v70,2013-03-04 10:15:00,
2013-03-04 01:20:00,-11.6,-21.6,30.04,West,276,0.0,1.0,60,0.00,,,0.00,Weather View 32 v70,2013-03-04 10:20:00,
2013-03-04 01:25:00,-11.7,-21.7,30.05,West,276,0.0,1.0,60,0.00,,,0.00,Weather View 32 v70,2013-03-04 10:25:00,
2013-03-04 01:30:00,-11.9,-21.9,30.05,West,276,0.0,1.0,60,0.00,,,0.00,Weather View 32 v70,2013-03-04 10:30:00,
2013-03-04 01:35:00,-12.0,-22.0,30.05,West,276,0.0,1.0,60,0.00,,,0.00,Weather View 32 v70,2013-03-04 10:35:00,
2013-03-04 01:40:00,-12.3,-22.2,30.05,West,276,0.0,1.0,60,0.00,,,0.00,Weather View 32 v70,2013-03-04 10:40:00,
2013-03-04 01:45:00,-12.4,-22.3,30.05,West,276,0.0,1.0,60,0.00,,,0.00,Weather View 32 v70,2013-03-04 10:45:00,
2013-03-04 01:50:00,-12.6,-22.5,30.05,West,276,0.0,0.0,60,0.00,,,0.00,Weather View 32 v70,2013-03-04 10:50:00,
2013-03-04 01:55:00,-12.8,-22.7,30.05,West,276,0.0,0.0,60,0.00,,,0.00,Weather View 32 v70,2013-03-04 10:55:00,
2013-03-04 02:00:00,-12.5,-22.1,30.05,West,276,0.0,1.0,61,0.00,,,0.00,Weather View 32 v70,2013-03-04 11:00:00,
2013-03-04 02:05:00,-12.4,-22.0,30.05,West,276,0.0,1.0,61,0.00,,,0.00,Weather View 32 v70,2013-03-04 11:05:00,
2013-03-04 02:10:00,-12.4,-22.0,30.04,West,276,0.0,1.0,61,0.00,,,0.00,Weather View 32 v70,2013-03-04 11:10:00,
2013-03-04 02:15:00,-12.5,-22.1,30.05,West,276,0.0,1.0,61,0.00,,,0.00,Weather View 32 v70,2013-03-04 11:15:00,
2013-03-04 02:20:00,-12.6,-22.5,30.05,West,276,0.0,1.0,60,0.00,,,0.00,Weather View 32 v70,2013-03-04 11:20:00,
2013-03-04 02:25:00,-13.0,-23.2,30.05,West,276,0.0,1.0,59,0.00,,,0.00,Weather View 32 v70,2013-03-04 11:25:00,
2013-03-04 02:30:00,-13.0,-22.9,30.05,West,276,0.0,1.0,60,0.00,,,0.00,Weather View 32 v70,2013-03-04 11:30:00,
2013-03-04 02:35:00,-13.0,-22.9,30.05,West,276,0.0,1.0,60,0.00,,,0.00,Weather View 32 v70,2013-03-04 11:35:00,
2013-03-04 02:40:00,-13.1,-23.3,30.05,West,276,0.0,1.0,59,0.00,,,0.00,Weather View 32 v70,2013-03-04 11:40:00,
2013-03-04 02:45:00,-13.2,-23.1,30.05,West,276,0.0,1.0,60,0.00,,,0.00,Weather View 32 v70,2013-03-04 11:45:00,
2013-03-04 02:50:00,-13.2,-23.4,30.06,West,276,0.0,1.0,59,0.00,,,0.00,Weather View 32 v70,2013-03-04 11:50:00,
2013-03-04 02:55:00,-13.2,-23.1,30.06,West,276,0.0,1.0,60,0.00,,,0.00,Weather View 32 v70,2013-03-04 11:55:00,
2013-03-04 03:00:00,-13.1,-23.0,30.06,West,276,0.0,0.0,60,0.00,,,0.00,Weather View 32 v70,2013-03-04 12:00:00,
2013-03-04 03:05:00,-13.1,-23.0,30.06,West,276,0.0,0.0,60,0.00,,,0.00,Weather View 32 v70,2013-03-04 12:05:00,
2013-03-04 03:10:00,-13.2,-23.1,30.06,West,276,0.0,0.0,60,0.00,,,0.00,Weather View 32 v70,2013-03-04 12:10:00,
2013-03-04 03:15:00,-13.2,-23.1,30.06,West,276,0.0,0.0,60,0.00,,,0.00,Weather View 32 v70,2013-03-04 12:15:00,
2013-03-04 03:20:00,-13.3,-23.5,30.06,West,276,0.0,0.0,59,0.00,,,0.00,Weather View 32 v70,2013-03-04 12:20:00,
2013-03-04 03:25:00,-13.6,-23.8,30.06,West,276,0.0,0.0,59,0.00,,,0.00,Weather View 32 v70,2013-03-04 12:25:00,
2013-03-04 03:30:00,-13.8,-24.0,30.06,West,276,0.0,0.0,59,0.00,,,0.00,Weather View 32 v70,2013-03-04 12:30:00,
2013-03-04 03:35:00,-13.8,-24.0,30.06,West,276,0.0,0.0,59,0.00,,,0.00,Weather View 32 v70,2013-03-04 12:35:00,
2013-03-04 03:40:00,-14.0,-24.2,30.06,West,276,0.0,0.0,59,0.00,,,0.00,Weather View 32 v70,2013-03-04 12:40:00,
2013-03-04 03:45:00,-14.1,-24.6,30.07,West,276,0.0,0.0,58,0.00,,,0.00,Weather View 32 v70,2013-03-04 12:45:00,
2013-03-04 03:50:00,-14.3,-24.8,30.07,West,276,0.0,0.0,58,0.00,,,0.00,Weather View 32 v70,2013-03-04 12:50:00,
2013-03-04 03:55:00,-14.3,-24.5,30.07,West,276,0.0,0.0,59,0.00,,,0.00,Weather View 32 v70,2013-03-04 12:55:00,
2013-03-04 04:00:00,-14.4,-24.5,30.07,West,276,0.0,0.0,59,0.00,,,0.00,Weather View 32 v70,2013-03-04 13:00:00,
2013-03-04 04:05:00,-14.5,-25.0,30.07,West,276,0.0,0.0,58,0.00,,,0.00,Weather View 32 v70,2013-03-04 13:05:00,
2013-03-04 04:10:00,-14.6,-24.7,30.07,West,276,0.0,0.0,59,0.00,,,0.00,Weather View 32 v70,2013-03-04 13:10:00,
2013-03-04 04:15:00,-14.5,-24.6,30.07,West,276,0.0,0.0,59,0.00,,,0.00,Weather View 32 v70,2013-03-04 13:15:00,
2013-03-04 04:20:00,-14.5,-24.6,30.07,West,276,0.0,0.0,59,0.00,,,0.00,Weather View 32 v70,2013-03-04 13:20:00,
2013-03-04 04:25:00,-14.6,-25.1,30.07,West,276,0.0,0.0,58,0.00,,,0.00,Weather View 32 v70,2013-03-04 13:25:00,
2013-03-04 04:30:00,-14.7,-25.2,30.07,West,276,0.0,0.0,58,0.00,,,0.00,Weather View 32 v70,2013-03-04 13:30:00,
2013-03-04 04:35:00,-14.7,-24.8,30.07,West,276,0.0,0.0,59,0.00,,,0.00,Weather View 32 v70,2013-03-04 13:35:00,
2013-03-04 04:40:00,-14.6,-25.1,30.07,West,276,0.0,0.0,58,0.00,,,0.00,Weather View 32 v70,2013-03-04 13:40:00,
2013-03-04 04:45:00,-14.7,-25.2,30.07,West,276,0.0,0.0,58,0.00,,,0.00,Weather View 32 v70,2013-03-04 13:45:00,
2013-03-04 04:50:00,-14.8,-25.2,30.07,West,276,0.0,0.0,58,0.00,,,0.00,Weather View 32 v70,2013-03-04 13:50:00,
2013-03-04 04:55:00,-14.9,-25.3,30.07,West,276,0.0,0.0,58,0.00,,,0.00,Weather View 32 v70,2013-03-04 13:55:00,
2013-03-04 05:00:00,-14.9,-25.3,30.07,West,276,0.0,0.0,58,0.00,,,0.00,Weather View 32 v70,2013-03-04 14:00:00,
2013-03-04 05:05:00,-15.0,-25.4,30.08,West,276,0.0,0.0,58,0.00,,,0.00,Weather View 32 v70,2013-03-04 14:05:00,
2013-03-04 05:10:00,-15.1,-25.5,30.08,West,276,0.0,0.0,58,0.00,,,0.00,Weather View 32 v70,2013-03-04 14:10:00,
2013-03-04 05:15:00,-15.3,-25.7,30.08,West,276,0.0,0.0,58,0.00,,,0.00,Weather View 32 v70,2013-03-04 14:15:00,
2013-03-04 05:20:00,-15.4,-26.1,30.08,West,276,0.0,0.0,57,0.00,,,0.00,Weather View 32 v70,2013-03-04 14:20:00,
2013-03-04 05:25:00,-15.5,-26.2,30.08,West,276,0.0,0.0,57,0.00,,,0.00,Weather View 32 v70,2013-03-04 14:25:00,
2013-03-04 05:30:00,-15.6,-26.3,30.09,West,276,0.0,0.0,57,0.00,,,0.00,Weather View 32 v70,2013-03-04 14:30:00,
2013-03-04 05:35:00,-15.7,-26.4,30.08,West,276,0.0,0.0,57,0.00,,,0.00,Weather View 32 v70,2013-03-04 14:35:00,
2013-03-04 05:40:00,-15.8,-26.5,30.09,West,276,0.0,0.0,57,0.00,,,0.00,Weather View 32 v70,2013-03-04 14:40:00,
2013-03-04 05:45:00,-15.8,-26.5,30.08,West,276,0.0,0.0,57,0.00,,,0.00,Weather View 32 v70,2013-03-04 14:45:00,
2013-03-04 05:50:00,-15.9,-26.3,30.09,West,276,0.0,0.0,58,0.00,,,0.00,Weather View 32 v70,2013-03-04 14:50:00,
2013-03-04 05:55:00,-15.8,-26.5,30.09,West,276,0.0,0.0,57,0.00,,,0.00,Weather View 32 v70,2013-03-04 14:55:00,
2013-03-04 06:00:00,-15.8,-26.2,30.09,West,276,0.0,0.0,58,0.00,,,0.00,Weather View 32 v70,2013-03-04 15:00:00,
2013-03-04 06:05:00,-15.8,-26.2,30.09,West,276,0.0,0.0,58,0.00,,,0.00,Weather View 32 v70,2013-03-04 15:05:00,
2013-03-04 06:10:00,-15.9,-26.3,30.09,West,276,0.0,0.0,58,0.00,,,0.00,Weather View 32 v70,2013-03-04 15:10:00,
2013-03-04 06:15:00,-15.9,-26.6,30.09,West,276,0.0,0.0,57,0.00,,,0.00,Weather View 32 v70,2013-03-04 15:15:00,
2013-03-04 06:20:00,-16.1,-26.8,30.09,West,276,0.0,0.0,57,0.00,,,0.00,Weather View 32 v70,2013-03-04 15:20:00,
2013-03-04 06:25:00,-16.2,-26.9,30.09,West,276,0.0,0.0,57,0.00,,,0.00,Weather View 32 v70,2013-03-04 15:25:00,
2013-03-04 06:30:00,-16.3,-27.0,30.09,West,276,0.0,0.0,57,0.00,,,0.00,Weather View 32 v70,2013-03-04 15:30:00,
2013-03-04 06:35:00,-16.3,-27.0,30.09,West,276,0.0,0.0,57,0.00,,,0.00,Weather View 32 v70,2013-03-04 15:35:00,
2013-03-04 06:40:00,-16.5,-27.2,30.09,West,276,0.0,0.0,57,0.00,,,0.00,Weather View 32 v70,2013-03-04 15:40:00,
2013-03-04 06:45:00,-16.5,-27.2,30.09,West,276,0.0,0.0,57,0.00,,,0.00,Weather View 32 v70,2013-03-04 15:45:00,
2013-03-04 06:50:00,-16.5,-27.2,30.09,West,276,0.0,0.0,57,0.00,,,0.00,Weather View 32 v70,2013-03-04 15:50:00,
2013-03-04 06:55:00,-16.4,-27.1,30.09,West,276,0.0,0.0,57,0.00,,,0.00,Weather View 32 v70,2013-03-04 15:55:00,
2013-03-04 07:00:00,-16.3,-27.0,30.09,West,276,0.0,0.0,57,0.00,,,0.00,Weather View 32 v70,2013-03-04 16:00:00,
2013-03-04 07:05:00,-16.5,-27.2,30.08,West,276,0.0,0.0,57,0.00,,,0.00,Weather View 32 v70,2013-03-04 16:05:00,
2013-03-04 07:10:00,-16.5,-27.2,30.09,West,276,0.0,0.0,57,0.00,,,0.00,Weather View 32 v70,2013-03-04 16:10:00,
2013-03-04 07:15:00,-16.5,-27.2,30.08,West,276,0.0,0.0,57,0.00,,,0.00,Weather View 32 v70,2013-03-04 16:15:00,
2013-03-04 07:20:00,-16.5,-27.2,30.08,West,276,0.0,0.0,57,0.00,,,0.00,Weather View 32 v70,2013-03-04 16:20:00,
2013-03-04 07:25:00,-16.5,-27.2,30.08,West,276,0.0,0.0,57,0.00,,,0.00,Weather View 32 v70,2013-03-04 16:25:00,
2013-03-04 07:30:00,-16.4,-27.1,30.08,West,276,0.0,0.0,57,0.00,,,0.00,Weather View 32 v70,2013-03-04 16:30:00,
2013-03-04 07:35:00,-16.4,-27.1,30.08,West,276,0.0,0.0,57,0.00,,,0.00,Weather View 32 v70,2013-03-04 16:35:00,
2013-03-04 07:40:00,-16.3,-27.0,30.08,West,276,0.0,0.0,57,0.00,,,0.00,Weather View 32 v70,2013-03-04 16:40:00,
2013-03-04 07:45:00,-16.3,-27.0,30.08,West,276,0.0,0.0,57,0.00,,,0.00,Weather View 32 v70,2013-03-04 16:45:00,
2013-03-04 07:50:00,-16.3,-27.0,30.08,West,276,0.0,0.0,57,0.00,,,0.00,Weather View 32 v70,2013-03-04 16:50:00,
2013-03-04 07:55:00,-16.4,-27.1,30.08,West,276,0.0,0.0,57,0.00,,,0.00,Weather View 32 v70,2013-03-04 16:55:00,
2013-03-04 08:00:00,-16.3,-27.0,30.08,West,276,0.0,0.0,57,0.00,,,0.00,Weather View 32 v70,2013-03-04 17:00:00,
2013-03-04 08:05:00,-16.3,-27.0,30.08,West,276,0.0,0.0,57,0.00,,,0.00,Weather View 32 v70,2013-03-04 17:05:00,
2013-03-04 08:10:00,-16.4,-27.1,30.08,West,276,0.0,0.0,57,0.00,,,0.00,Weather View 32 v70,2013-03-04 17:10:00,
2013-03-04 08:15:00,-16.3,-27.0,30.08,West,276,0.0,0.0,57,0.00,,,0.00,Weather View 32 v70,2013-03-04 17:15:00,
2013-03-04 08:20:00,-16.3,-27.0,30.08,West,276,0.0,0.0,57,0.00,,,0.00,Weather View 32 v70,2013-03-04 17:20:00,
2013-03-04 08:25:00,-16.1,-26.8,30.08,West,276,0.0,0.0,57,0.00,,,0.00,Weather View 32 v70,2013-03-04 17:25:00,
2013-03-04 08:30:00,-15.9,-26.3,30.08,West,276,0.0,0.0,58,0.00,,,0.00,Weather View 32 v70,2013-03-04 17:30:00,
2013-03-04 08:35:00,-15.7,-26.1,30.08,West,276,0.0,0.0,58,0.00,,,0.00,Weather View 32 v70,2013-03-04 17:35:00,
2013-03-04 08:40:00,-15.3,-25.4,30.08,West,276,0.0,0.0,59,0.00,,,0.00,Weather View 32 v70,2013-03-04 17:40:00,
2013-03-04 08:45:00,-15.0,-25.1,30.08,West,276,0.0,0.0,59,0.00,,,0.00,Weather View 32 v70,2013-03-04 17:45:00,
2013-03-04 08:50:00,-14.7,-24.8,30.08,West,276,0.0,0.0,59,0.00,,,0.00,Weather View 32 v70,2013-03-04 17:50:00,
2013-03-04 08:55:00,-14.2,-24.0,30.08,West,276,0.0,0.0,60,0.00,,,0.00,Weather View 32 v70,2013-03-04 17:55:00,
2013-03-04 09:00:00,-13.7,-23.6,30.08,West,276,0.0,0.0,60,0.00,,,0.00,Weather View 32 v70,2013-03-04 18:00:00,
2013-03-04 09:05:00,-13.1,-22.7,30.08,West,276,0.0,0.0,61,0.00,,,0.00,Weather View 32 v70,2013-03-04 18:05:00,
2013-03-04 09:10:00,-12.3,-21.6,30.08,West,276,0.0,0.0,62,0.00,,,0.00,Weather View 32 v70,2013-03-04 18:10:00,
2013-03-04 09:15:00,-11.4,-20.5,30.09,West,276,0.0,0.0,63,0.00,,,0.00,Weather View 32 v70,2013-03-04 18:15:00,
2013-03-04 09:20:00,-10.9,-20.0,30.08,West,276,0.0,0.0,63,0.00,,,0.00,Weather View 32 v70,2013-03-04 18:20:00,
2013-03-04 09:25:00,-10.1,-18.9,30.08,West,276,0.0,0.0,64,0.00,,,0.00,Weather View 32 v70,2013-03-04 18:25:00,
2013-03-04 09:29:00,-9.5,-18.3,30.08,West,276,0.0,0.0,64,0.00,,,0.00,Weather View 32 v70,2013-03-04 18:29:00,
2013-03-04 09:34:00,-8.3,-16.6,30.08,West,276,0.0,0.0,66,0.00,,,0.00,Weather View 32 v70,2013-03-04 18:34:00,
2013-03-04 09:39:00,-6.8,-14.9,30.08,West,276,0.0,0.0,67,0.00,,,0.00,Weather View 32 v70,2013-03-04 18:39:00,
2013-03-04 09:44:00,-5.5,-13.3,30.08,West,276,0.0,0.0,68,0.00,,,0.00,Weather View 32 v70,2013-03-04 18:44:00,
2013-03-04 09:49:00,-4.3,-11.9,30.08,West,276,0.0,0.0,69,0.00,,,0.00,Weather View 32 v70,2013-03-04 18:49:00,
2013-03-04 09:54:00,-3.1,-10.7,30.08,West,276,0.0,0.0,69,0.00,,,0.00,Weather View 32 v70,2013-03-04 18:54:00,
2013-03-04 09:59:00,-2.1,-9.8,30.08,West,276,0.0,0.0,69,0.00,,,0.00,Weather View 32 v70,2013-03-04 18:59:00,
2013-03-04 10:04:00,-1.2,-8.9,30.08,West,276,0.0,0.0,69,0.00,,,0.00,Weather View 32 v70,2013-03-04 19:04:00,
2013-03-04 10:09:00,-0.2,-7.9,30.08,West,276,0.0,0.0,69,0.00,,,0.00,Weather View 32 v70,2013-03-04 19:09:00,
2013-03-04 10:14:00,0.8,-7.0,30.08,West,276,0.0,0.0,69,0.00,,,0.00,Weather View 32 v70,2013-03-04 19:14:00,
2013-03-04 10:19:00,1.8,-5.7,30.08,West,276,0.0,0.0,70,0.00,,,0.00,Weather View 32 v70,2013-03-04 19:19:00,
2013-03-04 10:24:00,2.4,-5.4,30.08,West,276,0.0,0.0,69,0.00,,,0.00,Weather View 32 v70,2013-03-04 19:24:00,
2013-03-04 10:29:00,3.0,-4.9,30.07,West,276,0.0,0.0,69,0.00,,,0.00,Weather View 32 v70,2013-03-04 19:29:00,
2013-03-04 10:34:00,3.6,-4.6,30.07,West,276,0.0,0.0,68,0.00,,,0.00,Weather View 32 v70,2013-03-04 19:34:00,
2013-03-04 10:39:00,4.4,-3.5,30.07,West,274,0.0,0.0,69,0.00,,,0.00,Weather View 32 v70,2013-03-04 19:39:00,
2013-03-04 10:44:00,5.3,-3.0,30.07,West,274,0.0,0.0,68,0.00,,,0.00,Weather View 32 v70,2013-03-04 19:44:00,
2013-03-04 10:49:00,6.4,-1.9,30.07,South,183,0.0,0.0,68,0.00,,,0.00,Weather View 32 v70,2013-03-04 19:49:00,
2013-03-04 10:54:00,7.3,-1.7,30.06,South,183,0.0,0.0,66,0.00,,,0.00,Weather View 32 v70,2013-03-04 19:54:00,
2013-03-04 10:59:00,7.9,-1.4,30.06,South,183,0.0,0.0,65,0.00,,,0.00,Weather View 32 v70,2013-03-04 19:59:00,
2013-03-04 11:04:00,8.3,-1.4,30.06,South,183,0.0,0.0,64,0.00,,,0.00,Weather View 32 v70,2013-03-04 20:04:00,
2013-03-04 11:09:00,8.5,-1.5,30.06,South,183,0.0,1.0,63,0.00,,,0.00,Weather View 32 v70,2013-03-04 20:09:00,
2013-03-04 11:14:00,8.7,-1.3,30.06,South,183,0.0,1.0,63,0.00,,,0.00,Weather View 32 v70,2013-03-04 20:14:00,
2013-03-04 11:19:00,9.1,-0.9,30.06,South,183,0.0,1.0,63,0.00,,,0.00,Weather View 32 v70,2013-03-04 20:19:00,
2013-03-04 11:24:00,9.7,-0.4,30.06,South,183,0.0,1.0,63,0.00,,,0.00,Weather View 32 v70,2013-03-04 20:24:00,
2013-03-04 11:29:00,10.7,0.6,30.05,South,183,0.0,1.0,63,0.00,,,0.00,Weather View 32 v70,2013-03-04 20:29:00,
2013-03-04 11:34:00,11.3,0.8,30.06,South,183,0.0,1.0,62,0.00,,,0.00,Weather View 32 v70,2013-03-04 20:34:00,
2013-03-04 11:39:00,11.6,0.8,30.05,South,183,0.0,1.0,61,0.00,,,0.00,Weather View 32 v70,2013-03-04 20:39:00,
2013-03-04 11:44:00,12.0,1.1,30.05,South,183,0.0,1.0,61,0.00,,,0.00,Weather View 32 v70,2013-03-04 20:44:00,
2013-03-04 11:49:00,12.5,1.6,30.05,South,183,0.0,1.0,61,0.00,,,0.00,Weather View 32 v70,2013-03-04 20:49:00,
2013-03-04 11:54:00,13.1,1.8,30.05,South,183,0.0,1.0,60,0.00,,,0.00,Weather View 32 v70,2013-03-04 20:54:00,
2013-03-04 11:59:00,13.6,2.3,30.05,South,183,0.0,1.0,60,0.00,,,0.00,Weather View 32 v70,2013-03-04 20:59:00,
2013-03-04 12:04:00,14.0,2.3,30.05,South,183,0.0,1.0,59,0.00,,,0.00,Weather View 32 v70,2013-03-04 21:04:00,
2013-03-04 12:09:00,14.5,2.8,30.05,South,183,0.0,0.0,59,0.00,,,0.00,Weather View 32 v70,2013-03-04 21:09:00,
2013-03-04 12:14:00,14.9,2.8,30.05,South,183,0.0,0.0,58,0.00,,,0.00,Weather View 32 v70,2013-03-04 21:14:00,
2013-03-04 12:19:00,15.3,2.8,30.05,South,183,0.0,0.0,57,0.00,,,0.00,Weather View 32 v70,2013-03-04 21:19:00,
2013-03-04 12:24:00,15.6,3.1,30.05,South,183,0.0,0.0,57,0.00,,,0.00,Weather View 32 v70,2013-03-04 21:24:00,
2013-03-04 12:29:00,16.2,3.3,30.05,South,183,0.0,0.0,56,0.00,,,0.00,Weather View 32 v70,2013-03-04 21:29:00,
2013-03-04 12:34:00,16.6,3.6,30.04,South,183,0.0,0.0,56,0.00,,,0.00,Weather View 32 v70,2013-03-04 21:34:00,
2013-03-04 12:39:00,17.1,4.1,30.04,South,183,0.0,0.0,56,0.00,,,0.00,Weather View 32 v70,2013-03-04 21:39:00,
2013-03-04 12:44:00,17.6,4.2,30.04,South,183,0.0,0.0,55,0.00,,,0.00,Weather View 32 v70,2013-03-04 21:44:00,
2013-03-04 12:49:00,18.1,4.6,30.04,South,183,0.0,0.0,55,0.00,,,0.00,Weather View 32 v70,2013-03-04 21:49:00,
2013-03-04 12:54:00,18.3,4.4,30.04,South,183,0.0,0.0,54,0.00,,,0.00,Weather View 32 v70,2013-03-04 21:54:00,
2013-03-04 12:59:00,18.6,4.7,30.04,South,183,0.0,0.0,54,0.00,,,0.00,Weather View 32 v70,2013-03-04 21:59:00,
2013-03-04 13:04:00,18.9,4.6,30.04,South,183,0.0,0.0,53,0.00,,,0.00,Weather View 32 v70,2013-03-04 22:04:00,
2013-03-04 13:09:00,19.2,4.9,30.04,South,183,0.0,0.0,53,0.00,,,0.00,Weather View 32 v70,2013-03-04 22:09:00,
2013-03-04 13:14:00,19.5,5.1,30.03,South,183,0.0,0.0,53,0.00,,,0.00,Weather View 32 v70,2013-03-04 22:14:00,
2013-03-04 13:19:00,19.8,5.4,30.03,South,183,0.0,0.0,53,0.00,,,0.00,Weather View 32 v70,2013-03-04 22:19:00,
2013-03-04 13:24:00,20.2,5.4,30.03,South,183,0.0,0.0,52,0.00,,,0.00,Weather View 32 v70,2013-03-04 22:24:00,
2013-03-04 13:29:00,20.6,5.3,30.03,South,183,0.0,0.0,51,0.00,,,0.00,Weather View 32 v70,2013-03-04 22:29:00,
2013-03-04 13:34:00,20.9,5.6,30.03,South,183,0.0,0.0,51,0.00,,,0.00,Weather View 32 v70,2013-03-04 22:34:00,
2013-03-04 13:39:00,21.2,5.9,30.02,South,183,0.0,0.0,51,0.00,,,0.00,Weather View 32 v70,2013-03-04 22:39:00,
2013-03-04 13:44:00,21.4,5.6,30.02,South,183,0.0,0.0,50,0.00,,,0.00,Weather View 32 v70,2013-03-04 22:44:00,
2013-03-04 13:49:00,21.6,5.4,30.02,South,183,0.0,0.0,49,0.00,,,0.00,Weather View 32 v70,2013-03-04 22:49:00,
2013-03-04 13:56:00,21.9,6.1,30.02,South,183,0.0,0.0,50,0.00,,,0.00,Weather View 32 v70,2013-03-04 22:56:00,
2013-03-04 14:01:00,22.3,6.0,30.01,South,183,0.0,0.0,49,0.00,,,0.00,Weather View 32 v70,2013-03-04 23:01:00,
2013-03-04 14:06:00,22.6,6.3,30.02,South,183,0.0,0.0,49,0.00,,,0.00,Weather View 32 v70,2013-03-04 23:06:00,
2013-03-04 14:11:00,23.1,6.3,30.01,South,183,0.0,0.0,48,0.00,,,0.00,Weather View 32 v70,2013-03-04 23:11:00,
2013-03-04 14:16:00,23.3,6.0,30.01,South,183,0.0,0.0,47,0.00,,,0.00,Weather View 32 v70,2013-03-04 23:16:00,
2013-03-04 14:21:00,23.5,6.7,30.01,South,183,0.0,0.0,48,0.00,,,0.00,Weather View 32 v70,2013-03-04 23:21:00,
2013-03-04 14:26:00,23.9,7.1,30.01,South,183,0.0,0.0,48,0.00,,,0.00,Weather View 32 v70,2013-03-04 23:26:00,
2013-03-04 14:31:00,24.3,7.0,30.01,South,183,0.0,0.0,47,0.00,,,0.00,Weather View 32 v70,2013-03-04 23:31:00,
2013-03-04 14:36:00,24.4,6.6,30.01,South,183,0.0,0.0,46,0.00,,,0.00,Weather View 32 v70,2013-03-04 23:36:00,
2013-03-04 14:41:00,24.6,6.8,30.00,South,183,0.0,0.0,46,0.00,,,0.00,Weather View 32 v70,2013-03-04 23:41:00,
2013-03-04 14:46:00,25.0,6.6,30.00,South,183,0.0,0.0,45,0.00,,,0.00,Weather View 32 v70,2013-03-04 23:46:00,
2013-03-04 14:51:00,25.4,7.5,30.00,South,183,0.0,0.0,46,0.00,,,0.00,Weather View 32 v70,2013-03-04 23:51:00,
2013-03-04 14:56:00,25.9,7.5,30.00,South,183,0.0,0.0,45,0.00,,,0.00,Weather View 32 v70,2013-03-04 23:56:00,
2013-03-04 15:01:00,26.7,8.2,30.00,South,183,0.0,0.0,45,0.00,,,0.00,Weather View 32 v70,2013-03-05 00:01:00,
2013-03-04 15:06:00,27.4,8.3,29.99,South,183,0.0,0.0,44,0.00,,,0.00,Weather View 32 v70,2013-03-05 00:06:00,
2013-03-04 15:11:00,28.1,8.5,29.99,South,183,0.0,0.0,43,0.00,,,0.00,Weather View 32 v70,2013-03-05 00:11:00,
2013-03-04 15:16:00,28.3,8.6,29.99,South,183,0.0,0.0,43,0.00,,,0.00,Weather View 32 v70,2013-03-05 00:16:00,
2013-03-04 15:21:00,28.2,8.0,29.99,South,183,0.0,0.0,42,0.00,,,0.00,Weather View 32 v70,2013-03-05 00:21:00,
2013-03-04 15:26:00,27.7,7.6,29.99,South,183,0.0,0.0,42,0.00,,,0.00,Weather View 32 v70,2013-03-05 00:26:00,
2013-03-04 15:31:00,27.4,7.8,29.99,South,183,0.0,0.0,43,0.00,,,0.00,Weather View 32 v70,2013-03-05 00:31:00,
2013-03-04 15:36:00,27.5,7.9,29.99,South,183,0.0,0.0,43,0.00,,,0.00,Weather View 32 v70,2013-03-05 00:36:00,
2013-03-04 15:41:00,27.8,8.2,29.98,South,183,0.0,0.0,43,0.00,,,0.00,Weather View 32 v70,2013-03-05 00:41:00,
2013-03-04 15:46:00,27.8,8.2,29.98,South,183,0.0,0.0,43,0.00,,,0.00,Weather View 32 v70,2013-03-05 00:46:00,
2013-03-04 15:51:00,27.9,8.3,29.98,South,183,0.0,0.0,43,0.00,,,0.00,Weather View 32 v70,2013-03-05 00:51:00,
2013-03-04 15:56:00,28.1,8.5,29.98,South,183,0.0,0.0,43,0.00,,,0.00,Weather View 32 v70,2013-03-05 00:56:00,
2013-03-04 16:01:00,28.5,8.8,29.97,South,183,0.0,0.0,43,0.00,,,0.00,Weather View 32 v70,2013-03-05 01:01:00,
2013-03-04 16:06:00,28.6,8.4,29.97,South,183,0.0,0.0,42,0.00,,,0.00,Weather View 32 v70,2013-03-05 01:06:00,
2013-03-04 16:11:00,28.6,8.4,29.97,South,183,0.0,0.0,42,0.00,,,0.00,Weather View 32 v70,2013-03-05 01:11:00,
2013-03-04 16:16:00,28.6,8.4,29.97,South,183,0.0,0.0,42,0.00,,,0.00,Weather View 32 v70,2013-03-05 01:16:00,
2013-03-04 16:21:00,28.7,8.5,29.97,South,183,0.0,0.0,42,0.00,,,0.00,Weather View 32 v70,2013-03-05 01:21:00,
2013-03-04 16:26:00,28.8,8.6,29.98,South,183,0.0,0.0,42,0.00,,,0.00,Weather View 32 v70,2013-03-05 01:26:00,
2013-03-04 16:31:00,28.9,8.7,29.98,South,183,0.0,0.0,42,0.00,,,0.00,Weather View 32 v70,2013-03-05 01:31:00,
2013-03-04 16:36:00,29.0,8.8,29.97,South,183,0.0,0.0,42,0.00,,,0.00,Weather View 32 v70,2013-03-05 01:36:00,
2013-03-04 16:41:00,29.1,8.9,29.97,South,183,0.0,0.0,42,0.00,,,0.00,Weather View 32 v70,2013-03-05 01:41:00,
2013-03-04 16:46:00,29.0,8.8,29.97,South,183,0.0,0.0,42,0.00,,,0.00,Weather View 32 v70,2013-03-05 01:46:00,
2013-03-04 16:51:00,29.0,8.8,29.97,South,183,0.0,0.0,42,0.00,,,0.00,Weather View 32 v70,2013-03-05 01:51:00,
2013-03-04 16:56:00,28.9,8.7,29.97,South,183,0.0,0.0,42,0.00,,,0.00,Weather View 32 v70,2013-03-05 01:56:00,
2013-03-04 17:01:00,28.6,8.4,29.97,South,183,0.0,0.0,42,0.00,,,0.00,Weather View 32 v70,2013-03-05 02:01:00,
2013-03-04 17:06:00,28.2,9.1,29.97,South,183,0.0,0.0,44,0.00,,,0.00,Weather View 32 v70,2013-03-05 02:06:00,
2013-03-04 17:11:00,27.9,8.3,29.97,South,183,0.0,0.0,43,0.00,,,0.00,Weather View 32 v70,2013-03-05 02:11:00,
2013-03-04 17:16:00,27.8,8.2,29.96,South,183,0.0,0.0,43,0.00,,,0.00,Weather View 32 v70,2013-03-05 02:16:00,
2013-03-04 17:21:00,27.7,8.1,29.96,South,183,0.0,0.0,43,0.00,,,0.00,Weather View 32 v70,2013-03-05 02:21:00,
2013-03-04 17:26:00,27.4,8.3,29.96,South,183,0.0,0.0,44,0.00,,,0.00,Weather View 32 v70,2013-03-05 02:26:00,
2013-03-04 17:31:00,27.1,8.1,29.96,South,183,0.0,0.0,44,0.00,,,0.00,Weather View 32 v70,2013-03-05 02:31:00,
2013-03-04 17:36:00,26.5,7.5,29.96,South,183,0.0,0.0,44,0.00,,,0.00,Weather View 32 v70,2013-03-05 02:36:00,
2013-03-04 17:41:00,26.0,8.0,29.95,South,183,0.0,0.0,46,0.00,,,0.00,Weather View 32 v70,2013-03-05 02:41:00,
2013-03-04 17:46:00,25.5,8.1,29.96,South,183,0.0,0.0,47,0.00,,,0.00,Weather View 32 v70,2013-03-05 02:46:00,
2013-03-04 17:51:00,25.0,7.6,29.95,South,183,0.0,0.0,47,0.00,,,0.00,Weather View 32 v70,2013-03-05 02:51:00,
2013-03-04 17:56:00,24.4,7.5,29.95,South,183,0.0,0.0,48,0.00,,,0.00,Weather View 32 v70,2013-03-05 02:56:00,
2013-03-04 18:01:00,23.5,7.1,29.95,South,183,0.0,0.0,49,0.00,,,0.00,Weather View 32 v70,2013-03-05 03:01:00,
2013-03-04 18:06:00,22.4,7.0,29.95,South,183,0.0,0.0,51,0.00,,,0.00,Weather View 32 v70,2013-03-05 03:06:00,
2013-03-04 18:11:00,21.8,6.9,29.95,South,183,0.0,0.0,52,0.00,,,0.00,Weather View 32 v70,2013-03-05 03:11:00,
2013-03-04 18:16:00,21.3,6.4,29.95,South,183,0.0,0.0,52,0.00,,,0.00,Weather View 32 v70,2013-03-05 03:16:00,
2013-03-04 18:21:00,20.6,6.6,29.95,South,183,0.0,0.0,54,0.00,,,0.00,Weather View 32 v70,2013-03-05 03:21:00,
2013-03-04 18:26:00,19.8,5.8,29.95,South,183,0.0,0.0,54,0.00,,,0.00,Weather View 32 v70,2013-03-05 03:26:00,
2013-03-04 18:31:00,18.9,5.8,29.95,South,183,0.0,0.0,56,0.00,,,0.00,Weather View 32 v70,2013-03-05 03:31:00,
2013-03-04 18:36:00,18.4,5.3,29.94,South,183,0.0,0.0,56,0.00,,,0.00,Weather View 32 v70,2013-03-05 03:36:00,
2013-03-04 18:41:00,17.8,5.1,29.95,South,183,0.0,0.0,57,0.00,,,0.00,Weather View 32 v70,2013-03-05 03:41:00,
2013-03-04 18:46:00,16.9,4.7,29.95,South,183,0.0,0.0,58,0.00,,,0.00,Weather View 32 v70,2013-03-05 03:46:00,
2013-03-04 18:51:00,16.4,4.2,29.94,South,183,0.0,0.0,58,0.00,,,0.00,Weather View 32 v70,2013-03-05 03:51:00,
2013-03-04 18:56:00,15.8,3.3,29.94,South,183,0.0,0.0,57,0.00,,,0.00,Weather View 32 v70,2013-03-05 03:56:00,
2013-03-04 19:01:00,15.2,3.1,29.94,South,183,0.0,0.0,58,0.00,,,0.00,Weather View 32 v70,2013-03-05 04:01:00,
2013-03-04 19:06:00,14.7,3.0,29.94,South,183,0.0,0.0,59,0.00,,,0.00,Weather View 32 v70,2013-03-05 04:06:00,
2013-03-04 19:11:00,14.4,2.7,29.94,South,183,0.0,0.0,59,0.00,,,0.00,Weather View 32 v70,2013-03-05 04:11:00,
2013-03-04 19:16:00,13.8,2.1,29.94,South,183,0.0,0.0,59,0.00,,,0.00,Weather View 32 v70,2013-03-05 04:16:00,
2013-03-04 19:21:00,13.2,1.9,29.94,South,183,0.0,0.0,60,0.00,,,0.00,Weather View 32 v70,2013-03-05 04:21:00,
2013-03-04 19:26:00,12.5,2.0,29.94,South,183,0.0,0.0,62,0.00,,,0.00,Weather View 32 v70,2013-03-05 04:26:00,
2013-03-04 19:31:00,12.1,1.2,29.94,South,183,0.0,0.0,61,0.00,,,0.00,Weather View 32 v70,2013-03-05 04:31:00,
2013-03-04 19:36:00,11.8,1.3,29.94,South,183,0.0,0.0,62,0.00,,,0.00,Weather View 32 v70,2013-03-05 04:36:00,
2013-03-04 19:41:00,11.4,0.9,29.94,South,183,0.0,0.0,62,0.00,,,0.00,Weather View 32 v70,2013-03-05 04:41:00,
2013-03-04 19:46:00,11.0,1.2,29.93,South,183,0.0,0.0,64,0.00,,,0.00,Weather View 32 v70,2013-03-05 04:46:00,
2013-03-04 19:51:00,10.5,1.1,29.94,South,183,0.0,0.0,65,0.00,,,0.00,Weather View 32 v70,2013-03-05 04:51:00,
2013-03-04 19:56:00,10.1,0.4,29.93,South,183,0.0,0.0,64,0.00,,,0.00,Weather View 32 v70,2013-03-05 04:56:00,
2013-03-04 20:00:00,9.9,0.2,29.93,South,183,0.0,0.0,64,0.00,,,0.00,Weather View 32 v70,2013-03-05 05:00:00,
2013-03-04 20:05:00,9.7,0.6,29.93,South,183,0.0,0.0,66,0.00,,,0.00,Weather View 32 v70,2013-03-05 05:05:00,
2013-03-04 20:10:00,9.5,0.8,29.93,South,183,0.0,0.0,67,0.00,,,0.00,Weather View 32 v70,2013-03-05 05:10:00,
2013-03-04 20:15:00,9.1,0.1,29.93,South,183,0.0,0.0,66,0.00,,,0.00,Weather View 32 v70,2013-03-05 05:15:00,
2013-03-04 20:20:00,8.4,-0.6,29.93,South,183,0.0,0.0,66,0.00,,,0.00,Weather View 32 v70,2013-03-05 05:20:00,
2013-03-04 20:25:00,7.9,-1.7,29.93,South,183,0.0,0.0,64,0.00,,,0.00,Weather View 32 v70,2013-03-05 05:25:00,
2013-03-04 20:30:00,7.4,-2.2,29.92,South,183,0.0,0.0,64,0.00,,,0.00,Weather View 32 v70,2013-03-05 05:30:00,
2013-03-04 20:35:00,7.1,-2.2,29.93,South,183,0.0,0.0,65,0.00,,,0.00,Weather View 32 v70,2013-03-05 05:35:00,
2013-03-04 20:40:00,6.7,-2.6,29.92,South,183,0.0,0.0,65,0.00,,,0.00,Weather View 32 v70,2013-03-05 05:40:00,
2013-03-04 20:45:00,6.4,-2.5,29.92,South,183,0.0,0.0,66,0.00,,,0.00,Weather View 32 v70,2013-03-05 05:45:00,
2013-03-04 20:50:00,6.3,-2.3,29.92,South,183,0.0,0.0,67,0.00,,,0.00,Weather View 32 v70,2013-03-05 05:50:00,
2013-03-04 20:55:00,6.0,-2.6,29.92,South,183,0.0,0.0,67,0.00,,,0.00,Weather View 32 v70,2013-03-05 05:55:00,
2013-03-04 21:00:00,5.8,-2.8,29.92,South,183,0.0,0.0,67,0.00,,,0.00,Weather View 32 v70,2013-03-05 06:00:00,
2013-03-04 21:05:00,5.4,-3.5,29.92,South,183,0.0,0.0,66,0.00,,,0.00,Weather View 32 v70,2013-03-05 06:05:00,
2013-03-04 21:10:00,5.1,-3.8,29.92,South,183,0.0,0.0,66,0.00,,,0.00,Weather View 32 v70,2013-03-05 06:10:00,
2013-03-04 21:15:00,4.8,-4.1,29.92,South,183,0.0,0.0,66,0.00,,,0.00,Weather View 32 v70,2013-03-05 06:15:00,
2013-03-04 21:20:00,4.6,-3.9,29.92,South,183,0.0,0.0,67,0.00,,,0.00,Weather View 32 v70,2013-03-05 06:20:00,
2013-03-04 21:25:00,4.5,-3.7,29.92,South,183,0.0,0.0,68,0.00,,,0.00,Weather View 32 v70,2013-03-05 06:25:00,
2013-03-04 21:30:00,4.2,-4.3,29.92,South,183,0.0,0.0,67,0.00,,,0.00,Weather View 32 v70,2013-03-05 06:30:00,
2013-03-04 21:35:00,4.0,-4.5,29.92,South,183,0.0,0.0,67,0.00,,,0.00,Weather View 32 v70,2013-03-05 06:35:00,
2013-03-04 21:40:00,3.7,-5.1,29.91,South,183,0.0,0.0,66,0.00,,,0.00,Weather View 32 v70,2013-03-05 06:40:00,
2013-03-04 21:45:00,3.4,-5.1,29.92,South,183,0.0,0.0,67,0.00,,,0.00,Weather View 32 v70,2013-03-05 06:45:00,
2013-03-04 21:50:00,3.1,-5.4,29.91,South,183,0.0,0.0,67,0.00,,,0.00,Weather View 32 v70,2013-03-05 06:50:00,
2013-03-04 21:55:00,2.9,-5.6,29.92,South,183,0.0,0.0,67,0.00,,,0.00,Weather View 32 v70,2013-03-05 06:55:00,
2013-03-04 22:00:00,2.7,-5.8,29.92,South,183,0.0,0.0,67,0.00,,,0.00,Weather View 32 v70,2013-03-05 07:00:00,
2013-03-04 22:05:00,2.5,-6.3,29.91,South,183,0.0,0.0,66,0.00,,,0.00,Weather View 32 v70,2013-03-05 07:05:00,
2013-03-04 22:10:00,2.2,-6.5,29.91,South,183,0.0,0.0,66,0.00,,,0.00,Weather View 32 v70,2013-03-05 07:10:00,
2013-03-04 22:15:00,2.1,-6.3,29.91,South,183,0.0,0.0,67,0.00,,,0.00,Weather View 32 v70,2013-03-05 07:15:00,
2013-03-04 22:20:00,1.9,-6.5,29.91,South,183,0.0,0.0,67,0.00,,,0.00,Weather View 32 v70,2013-03-05 07:20:00,
2013-03-04 22:25:00,1.9,-6.5,29.91,South,183,0.0,0.0,67,0.00,,,0.00,Weather View 32 v70,2013-03-05 07:25:00,
2013-03-04 22:30:00,1.8,-6.6,29.92,South,183,0.0,0.0,67,0.00,,,0.00,Weather View 32 v70,2013-03-05 07:30:00,
2013-03-04 22:35:00,1.6,-7.1,29.92,South,183,0.0,0.0,66,0.00,,,0.00,Weather View 32 v70,2013-03-05 07:35:00,
2013-03-04 22:40:00,1.3,-7.4,29.91,South,183,0.0,0.0,66,0.00,,,0.00,Weather View 32 v70,2013-03-05 07:40:00,
2013-03-04 22:44:00,1.1,-7.6,29.91,South,183,0.0,0.0,66,0.00,,,0.00,Weather View 32 v70,2013-03-05 07:44:00,
2013-03-04 22:49:00,0.9,-7.8,29.91,South,183,0.0,0.0,66,0.00,,,0.00,Weather View 32 v70,2013-03-05 07:49:00,
2013-03-04 22:54:00,0.9,-7.5,29.91,South,183,0.0,0.0,67,0.00,,,0.00,Weather View 32 v70,2013-03-05 07:54:00,
2013-03-04 22:59:00,0.9,-7.2,29.91,South,183,0.0,0.0,68,0.00,,,0.00,Weather View 32 v70,2013-03-05 07:59:00,
2013-03-04 23:04:00,0.9,-7.5,29.90,South,183,0.0,0.0,67,0.00,,,0.00,Weather View 32 v70,2013-03-05 08:04:00,
2013-03-04 23:09:00,0.7,-7.4,29.90,South,183,0.0,0.0,68,0.00,,,0.00,Weather View 32 v70,2013-03-05 08:09:00,
2013-03-04 23:14:00,0.5,-7.6,29.91,South,183,0.0,0.0,68,0.00,,,0.00,Weather View 32 v70,2013-03-05 08:14:00,
2013-03-04 23:19:00,0.4,-7.7,29.90,South,183,0.0,0.0,68,0.00,,,0.00,Weather View 32 v70,2013-03-05 08:19:00,
2013-03-04 23:24:00,0.2,-7.8,29.90,South,183,0.0,0.0,68,0.00,,,0.00,Weather View 32 v70,2013-03-05 08:24:00,
2013-03-04 23:29:00,0.2,-7.8,29.90,South,183,0.0,0.0,68,0.00,,,0.00,Weather View 32 v70,2013-03-05 08:29:00,
2013-03-04 23:34:00,0.0,-8.0,29.89,South,183,0.0,0.0,68,0.00,,,0.00,Weather View 32 v70,2013-03-05 08:34:00,
2013-03-04 23:39:00,-0.2,-8.2,29.89,South,183,0.0,0.0,68,0.00,,,0.00,Weather View 32 v70,2013-03-05 08:39:00,
2013-03-04 23:44:00,-0.4,-8.4,29.89,South,183,0.0,0.0,68,0.00,,,0.00,Weather View 32 v70,2013-03-05 08:44:00,
2013-03-04 23:49:00,-0.5,-8.5,29.89,South,183,0.0,0.0,68,0.00,,,0.00,Weather View 32 v70,2013-03-05 08:49:00,
2013-03-04 23:54:00,-0.6,-8.9,29.89,South,183,0.0,0.0,67,0.00,,,0.00,Weather View 32 v70,2013-03-05 08:54:00,
2013-03-04 23:59:00,-0.6,-8.6,29.89,South,183,0.0,0.0,68,0.00,,,0.00,Weather View 32 v70,2013-03-05 08:59:00,